Time;durP1;ratioP1;P1;durP2;ratioP2;P2;SDS_P1;SDS_P2;PMS_P1;PMS_P2;Temp;Humidity;BMP_temperature;BMP_pressure;BME280_temperature;BME280_humidity;BME280_pressure;Samples;Min_cycle;Max_cycle;Signal;HPM_P1;HPM_P2
2022/10/18 00:01:49;;;;;;;5.93;4.15;;;;;;;20.92;43.65;96334.50;5007000;28;20677;-66
2022/10/18 00:04:14;;;;;;;5.95;4.25;;;;;;;21.69;43.75;96452.53;5007143;28;20040;-67
2022/10/18 00:06:40;;;;;;;6.65;4.95;;;;;;;20.24;43.52;96226.84;5006691;28;20030;-67
2022/10/18 00:09:05;;;;;;;5.15;4.43;;;;;;;21.53;43.60;96428.47;5005991;28;20363;-67
2022/10/18 00:11:30;;;;;;;5.75;4.28;;;;;;;21.47;43.94;96426.84;5006668;28;20033;-65
2022/10/18 00:13:56;;;;;;;5.85;4.40;;;;;;;21.65;43.77;96440.31;4998918;28;20088;-66
2022/10/18 00:16:22;;;;;;;6.38;5.00;;;;;;;21.52;43.75;96420.75;4999391;28;20044;-65
2022/10/18 00:18:47;;;;;;;6.55;4.93;;;;;;;21.66;43.60;96436.41;5001847;28;20104;-67
2022/10/18 00:21:15;;;;;;;5.90;4.63;;;;;;;21.29;43.89;96380.72;5000716;28;20038;-65
2022/10/18 00:23:40;;;;;;;6.63;4.80;;;;;;;21.65;43.65;96426.72;4996843;28;20029;-66
2022/10/18 00:26:10;;;;;;;5.32;4.35;;;;;;;21.45;43.59;96407.50;5006944;28;20030;-66
2022/10/18 00:28:37;;;;;;;6.57;4.85;;;;;;;21.33;43.82;96397.63;5015857;28;20041;-58
2022/10/18 00:31:12;;;;;;;6.70;4.57;;;;;;;21.63;43.76;96421.00;5007939;28;20128;-66
2022/10/18 00:33:37;;;;;;;7.15;5.03;;;;;;;21.42;43.61;96383.22;5025431;28;20046;-67
2022/10/18 00:36:03;;;;;;;6.53;5.07;;;;;;;21.13;43.67;96340.38;5025289;28;20045;-66
2022/10/18 00:38:28;;;;;;;7.35;5.00;;;;;;;20.87;43.56;96306.00;5025166;28;20029;-66
2022/10/18 00:40:54;;;;;;;6.25;4.47;;;;;;;20.63;43.59;96269.16;5025676;28;20041;-67
2022/10/18 00:43:19;;;;;;;6.93;5.20;;;;;;;20.45;43.86;96231.28;5025212;28;20034;-66
2022/10/18 00:45:45;;;;;;;6.18;4.63;;;;;;;21.59;43.72;96410.28;5025434;28;20029;-65
2022/10/18 00:48:11;;;;;;;6.00;4.80;;;;;;;21.59;43.55;96404.13;5020767;28;20462;-64
2022/10/18 00:50:36;;;;;;;5.72;4.80;;;;;;;21.58;44.04;96402.59;5004033;28;20018;-66
2022/10/18 00:53:03;;;;;;;7.03;4.70;;;;;;;21.41;43.75;96379.75;5025150;28;20566;-67
2022/10/18 00:55:30;;;;;;;7.53;5.13;;;;;;;21.29;43.73;96375.31;5020995;28;20069;-67
2022/10/18 00:57:56;;;;;;;6.03;4.95;;;;;;;21.28;43.72;96354.75;4999971;28;20045;-67
2022/10/18 01:00:21;;;;;;;5.68;4.68;;;;;;;21.56;43.80;96405.03;4998290;28;20038;-66
2022/10/18 01:02:47;;;;;;;7.15;5.00;;;;;;;21.41;43.82;96374.31;5005330;28;20037;-64
2022/10/18 01:05:16;;;;;;;6.30;5.07;;;;;;;21.56;43.86;96394.16;4986846;28;20084;-66
2022/10/18 01:07:57;;;;;;;6.25;5.07;;;;;;;21.57;43.88;96395.69;4997997;28;20073;-66
2022/10/18 01:10:48;;;;;;;7.28;5.13;;;;;;;21.39;43.78;96374.03;4991950;28;20042;-66
2022/10/18 01:13:45;;;;;;;7.00;5.22;;;;;;;21.25;43.88;96347.53;5003914;28;20540;-63
2022/10/18 01:16:14;;;;;;;6.97;4.88;;;;;;;21.53;43.87;96389.66;5002497;28;20053;-59
2022/10/18 01:19:01;;;;;;;6.72;5.30;;;;;;;19.15;43.67;96056.25;5005639;28;20488;-64
2022/10/18 01:21:29;;;;;;;6.07;4.78;;;;;;;21.52;43.89;96393.59;5003794;28;20132;-64
2022/10/18 01:24:30;;;;;;;6.13;4.80;;;;;;;21.20;43.89;96339.28;5005931;28;20096;-64
2022/10/18 01:27:16;;;;;;;6.10;4.97;;;;;;;21.42;43.94;96367.69;4990107;28;20308;-65
2022/10/18 01:30:06;;;;;;;6.70;5.25;;;;;;;21.50;43.90;96385.16;4999854;28;20038;-65
2022/10/18 01:32:40;;;;;;;6.97;5.30;;;;;;;21.00;43.93;96310.00;5005764;28;20026;-57
2022/10/18 01:35:12;;;;;;;6.63;5.15;;;;;;;21.19;43.87;96332.34;5003895;28;20042;-60
2022/10/18 01:37:38;;;;;;;7.38;5.30;;;;;;;20.99;43.67;96316.63;4984888;28;20093;-57
2022/10/18 01:40:05;;;;;;;6.65;5.32;;;;;;;21.48;44.00;96387.59;4985876;28;20509;-60
2022/10/18 01:42:30;;;;;;;6.88;5.45;;;;;;;20.85;43.86;96285.94;4987061;28;20046;-56
2022/10/18 01:44:56;;;;;;;7.57;5.70;;;;;;;21.34;43.93;96355.63;5004942;28;20038;-59
2022/10/18 01:47:21;;;;;;;6.45;4.97;;;;;;;21.33;43.87;96369.69;4986269;28;20042;-66
2022/10/18 01:49:47;;;;;;;7.13;5.75;;;;;;;20.65;43.84;96251.19;4990708;28;20425;-66
2022/10/18 01:52:13;;;;;;;6.90;5.45;;;;;;;20.82;43.70;96286.88;5018281;28;20042;-63
2022/10/18 01:54:42;;;;;;;6.78;5.18;;;;;;;21.14;43.94;96320.16;5004039;28;20057;-58
2022/10/18 01:57:13;;;;;;;6.57;4.97;;;;;;;21.47;43.83;96369.78;4993953;28;20041;-60
2022/10/18 01:59:45;;;;;;;6.30;4.97;;;;;;;21.46;43.93;96373.69;5019559;28;20116;-61
2022/10/18 02:02:38;;;;;;;7.90;5.72;;;;;;;21.47;44.00;96369.78;5028652;28;20037;-64
2022/10/18 02:05:24;;;;;;;6.57;5.35;;;;;;;21.44;43.95;96371.41;5042781;28;20029;-65
2022/10/18 02:08:03;;;;;;;7.85;5.38;;;;;;;21.43;43.89;96363.72;5009971;28;20057;-62
2022/10/18 02:10:36;;;;;;;7.90;5.70;;;;;;;21.11;43.59;96326.50;4998617;28;20042;-67
2022/10/18 02:13:01;;;;;;;6.93;5.20;;;;;;;20.84;43.85;96273.59;5010262;28;20427;-64
2022/10/18 02:15:32;;;;;;;6.53;4.97;;;;;;;20.09;43.79;96155.53;5011050;28;20041;-63
2022/10/18 02:17:58;;;;;;;7.85;5.78;;;;;;;20.79;43.97;96271.50;5025793;28;20021;-65
2022/10/18 02:20:24;;;;;;;7.03;5.57;;;;;;;21.08;43.82;96322.00;5010499;28;20526;-61
2022/10/18 02:22:49;;;;;;;6.57;5.53;;;;;;;21.42;43.99;96362.25;4985034;28;20037;-58
2022/10/18 02:25:24;;;;;;;7.03;4.72;;;;;;;18.58;43.63;95952.97;5010797;28;20127;-65
2022/10/18 02:27:50;;;;;;;7.22;5.40;;;;;;;20.84;43.94;96263.50;4993302;28;20042;-67
2022/10/18 02:30:15;;;;;;;6.70;5.10;;;;;;;21.42;43.95;96362.25;4980261;28;20041;-63
2022/10/18 02:32:49;;;;;;;7.15;5.38;;;;;;;19.79;43.92;96103.53;5009840;28;20041;-60
2022/10/18 02:35:34;;;;;;;6.68;4.88;;;;;;;21.39;43.88;96352.28;5028330;28;20028;-64
2022/10/18 02:38:00;;;;;;;7.43;5.57;;;;;;;21.40;43.91;96359.22;5003438;28;20041;-64
2022/10/18 02:40:25;;;;;;;7.10;5.25;;;;;;;20.53;43.94;96237.84;4990104;28;20026;-68
2022/10/18 02:42:55;;;;;;;6.53;5.20;;;;;;;20.45;43.83;96231.28;5027513;28;20455;-64
2022/10/18 02:45:21;;;;;;;7.22;5.47;;;;;;;21.21;44.24;96352.41;5028050;28;20026;-64
2022/10/18 02:47:46;;;;;;;6.90;5.57;;;;;;;19.96;43.73;96148.06;4993343;28;20483;-56
2022/10/18 02:50:12;;;;;;;7.68;5.57;;;;;;;20.85;43.88;96296.81;5010531;28;20484;-66
2022/10/18 02:52:37;;;;;;;6.85;5.32;;;;;;;20.70;43.95;96263.41;5027181;28;20041;-57
2022/10/18 02:55:03;;;;;;;8.10;5.30;;;;;;;21.37;43.86;96373.72;5027741;28;20049;-62
2022/10/18 02:57:29;;;;;;;6.60;5.25;;;;;;;20.09;43.61;96181.91;5007953;28;20422;-63
2022/10/18 02:59:55;;;;;;;7.28;5.88;;;;;;;20.35;43.95;96221.69;5016773;28;20033;-66
2022/10/18 03:02:20;;;;;;;6.20;5.13;;;;;;;21.26;43.88;96354.50;5027476;28;20108;-58
2022/10/18 03:04:45;;;;;;;6.70;5.22;;;;;;;21.18;43.84;96342.47;5009832;28;20409;-64
2022/10/18 03:07:11;;;;;;;6.82;5.60;;;;;;;21.23;44.03;96349.97;5006464;28;20250;-61
2022/10/18 03:09:36;;;;;;;7.07;5.57;;;;;;;21.35;44.14;96368.00;5001797;28;20108;-60
2022/10/18 03:12:02;;;;;;;8.10;5.53;;;;;;;20.52;43.95;96234.41;5007642;28;20038;-62
2022/10/18 03:14:27;;;;;;;6.95;5.47;;;;;;;20.03;43.85;96159.34;5007946;28;20030;-63
2022/10/18 03:16:53;;;;;;;6.82;5.00;;;;;;;20.69;43.79;96268.09;5007493;28;20033;-67
2022/10/18 03:19:18;;;;;;;7.32;5.50;;;;;;;21.33;44.06;96356.88;5007527;28;20493;-68
2022/10/18 03:21:44;;;;;;;6.70;5.43;;;;;;;20.67;44.07;96258.88;5007265;28;20038;-68
2022/10/18 03:24:09;;;;;;;8.23;5.65;;;;;;;19.94;43.82;96151.25;5007667;28;20034;-67
2022/10/18 03:26:34;;;;;;;7.15;5.35;;;;;;;21.31;44.01;96359.28;5007934;28;20037;-67
2022/10/18 03:29:00;;;;;;;6.75;5.43;;;;;;;20.67;43.88;96253.44;5006751;28;20042;-68
2022/10/18 03:31:25;;;;;;;7.07;5.80;;;;;;;20.19;44.03;96186.03;5006938;28;20034;-67
2022/10/18 03:33:51;;;;;;;7.47;5.60;;;;;;;20.21;44.16;96192.53;5007164;28;20516;-68
2022/10/18 03:36:16;;;;;;;6.88;5.18;;;;;;;20.48;43.81;96241.94;5006669;28;20058;-67
2022/10/18 03:38:42;;;;;;;7.40;5.22;;;;;;;20.03;43.90;96157.38;5006593;28;20034;-68
2022/10/18 03:41:07;;;;;;;6.43;5.35;;;;;;;20.22;44.20;96202.16;5007905;28;20030;-65
2022/10/18 03:43:33;;;;;;;6.90;5.50;;;;;;;20.20;43.91;96201.84;5005605;28;20037;-67
2022/10/18 03:45:58;;;;;;;7.15;5.13;;;;;;;20.27;44.07;96204.25;5007249;28;20124;-67
2022/10/18 03:48:24;;;;;;;6.45;5.22;;;;;;;20.84;44.13;96306.19;5002497;28;20050;-66
2022/10/18 03:50:49;;;;;;;7.00;5.45;;;;;;;20.83;44.13;96310.09;5005051;28;20053;-67
2022/10/18 03:53:15;;;;;;;8.48;6.13;;;;;;;21.13;43.85;96351.25;5007427;28;20522;-67
2022/10/18 03:55:40;;;;;;;6.95;5.43;;;;;;;20.91;43.64;96355.47;5023350;28;20432;-60
2022/10/18 03:58:06;;;;;;;7.78;5.80;;;;;;;21.27;44.09;96376.97;5019388;28;20088;-65
2022/10/18 04:00:31;;;;;;;7.53;5.85;;;;;;;20.80;43.96;96319.16;5018333;28;20079;-57
2022/10/18 04:02:57;;;;;;;8.15;5.93;;;;;;;21.26;44.19;96370.78;5026468;28;20032;-62
2022/10/18 04:05:29;;;;;;;7.13;5.72;;;;;;;20.07;43.92;96193.19;5035136;28;20775;-64
2022/10/18 04:07:55;;;;;;;6.63;5.43;;;;;;;21.00;43.95;96342.59;5024000;28;20034;-66
2022/10/18 04:10:21;;;;;;;7.95;5.35;;;;;;;20.76;43.92;96307.72;5007462;28;20033;-66
2022/10/18 04:12:47;;;;;;;7.45;5.50;;;;;;;21.25;44.09;96373.97;5024062;28;20512;-63
2022/10/18 04:15:12;;;;;;;6.95;5.53;;;;;;;20.76;44.08;96302.28;5022267;28;20484;-64
2022/10/18 04:17:38;;;;;;;7.30;5.75;;;;;;;21.13;43.98;96345.81;5007101;28;20151;-66
2022/10/18 04:20:04;;;;;;;6.63;5.35;;;;;;;20.56;44.16;96264.81;5025424;28;20053;-64
2022/10/18 04:22:29;;;;;;;7.30;5.60;;;;;;;20.91;44.12;96322.13;5023021;28;20512;-65
2022/10/18 04:24:55;;;;;;;7.45;5.72;;;;;;;20.49;44.04;96269.81;5021943;28;20491;-64
2022/10/18 04:27:21;;;;;;;7.28;6.07;;;;;;;21.10;43.81;96363.03;5025605;28;20455;-64
2022/10/18 04:29:46;;;;;;;7.25;5.78;;;;;;;20.88;44.04;96317.59;5026370;28;20026;-60
2022/10/18 04:32:12;;;;;;;7.35;5.72;;;;;;;20.79;43.77;96326.56;5026489;28;20021;-60
2022/10/18 04:34:37;;;;;;;6.18;5.15;;;;;;;21.22;44.02;96370.19;5024749;28;20072;-65
2022/10/18 04:37:02;;;;;;;7.55;5.15;;;;;;;20.93;43.90;96314.28;5021802;28;20121;-65
2022/10/18 04:39:28;;;;;;;7.38;5.95;;;;;;;19.82;43.97;96146.75;5025836;28;20046;-60
2022/10/18 04:41:53;;;;;;;6.95;5.38;;;;;;;21.05;44.00;96349.34;5024132;28;20073;-67
2022/10/18 04:44:19;;;;;;;7.70;5.53;;;;;;;19.78;43.96;96146.16;5026443;28;20033;-66
2022/10/18 04:46:44;;;;;;;7.13;5.63;;;;;;;21.25;43.50;96338.66;5032691;28;20397;-67
2022/10/18 04:49:10;;;;;;;7.72;5.82;;;;;;;21.12;44.03;96338.13;5043987;28;20040;-65
2022/10/18 04:51:35;;;;;;;9.68;5.85;;;;;;;20.79;44.08;96282.38;5034297;28;20038;-64
2022/10/18 04:54:00;;;;;;;7.88;5.22;;;;;;;21.00;44.27;96315.44;5026926;28;20099;-57
2022/10/18 04:56:26;;;;;;;9.20;6.00;;;;;;;20.46;44.39;96221.91;5018889;28;20036;-61
2022/10/18 04:58:51;;;;;;;7.80;5.10;;;;;;;20.91;44.20;96286.81;5030935;28;20048;-61
2022/10/18 05:01:17;;;;;;;7.50;5.75;;;;;;;21.38;44.44;96339.91;5025290;28;20033;-63
2022/10/18 05:03:43;;;;;;;6.82;5.13;;;;;;;21.36;44.09;96298.88;5033998;28;20106;-67
2022/10/18 05:06:08;;;;;;;6.55;5.15;;;;;;;21.42;44.17;96323.44;5018656;28;20046;-60
2022/10/18 05:08:34;;;;;;;7.18;5.57;;;;;;;20.79;44.27;96239.69;5003933;28;20033;-66
2022/10/18 05:11:00;;;;;;;7.95;4.97;;;;;;;20.66;42.26;96295.38;5024266;28;20099;-64
2022/10/18 05:13:25;;;;;;;6.50;5.22;;;;;;;21.29;44.20;96345.41;5024235;28;20037;-61
2022/10/18 05:15:51;;;;;;;6.13;5.03;;;;;;;20.31;44.29;96176.94;5006412;28;20405;-66
2022/10/18 05:18:16;;;;;;;7.25;5.50;;;;;;;21.57;44.21;96346.75;5021527;28;20037;-63
2022/10/18 05:20:42;;;;;;;7.93;5.65;;;;;;;21.56;44.00;96339.81;5017818;28;20415;-67
2022/10/18 05:23:10;;;;;;;7.38;5.80;;;;;;;20.87;43.58;96218.38;5025639;28;20033;-66
2022/10/18 05:25:42;;;;;;;7.30;5.65;;;;;;;21.70;43.54;96344.53;5027297;28;20049;-65
2022/10/18 05:28:07;;;;;;;8.32;5.45;;;;;;;21.67;43.56;96323.72;5014713;28;20042;-68
2022/10/18 05:30:35;;;;;;;8.13;5.47;;;;;;;21.37;43.23;96256.88;5028031;28;20041;-67
2022/10/18 05:33:01;;;;;;;8.63;5.50;;;;;;;21.11;43.11;96223.31;4983664;28;20072;-61
2022/10/18 05:35:26;;;;;;;8.18;5.80;;;;;;;21.39;43.25;96272.72;5023551;28;20022;-63
2022/10/18 05:37:52;;;;;;;8.50;5.35;;;;;;;22.03;43.12;96362.97;5012862;28;20022;-66
2022/10/18 05:40:17;;;;;;;9.80;5.75;;;;;;;21.83;43.22;96336.88;5029761;28;20030;-66
2022/10/18 05:42:43;;;;;;;9.52;5.93;;;;;;;22.08;43.03;96358.84;5029005;28;20048;-60
2022/10/18 05:45:08;;;;;;;7.57;5.63;;;;;;;21.96;42.97;96352.44;5023157;28;20046;-60
2022/10/18 05:47:33;;;;;;;8.25;5.30;;;;;;;21.99;43.07;96356.94;5008433;28;20040;-61
2022/10/18 05:49:59;;;;;;;7.03;5.38;;;;;;;22.10;42.75;96359.84;5005747;28;20044;-59
2022/10/18 05:52:24;;;;;;;7.20;5.95;;;;;;;22.27;42.53;96360.94;4999121;28;20044;-63
2022/10/18 05:54:50;;;;;;;7.55;5.68;;;;;;;22.26;42.35;96358.69;5006879;28;20054;-61
2022/10/18 05:57:16;;;;;;;7.75;6.07;;;;;;;22.34;42.20;96355.09;4998077;28;20096;-64
2022/10/18 05:59:41;;;;;;;8.77;6.15;;;;;;;22.37;42.29;96358.88;5009234;28;20030;-59
2022/10/18 06:02:08;;;;;;;8.82;6.28;;;;;;;22.29;42.13;96336.72;5009096;28;20018;-62
2022/10/18 06:04:34;;;;;;;7.47;5.75;;;;;;;22.50;42.05;96362.81;5028419;28;20053;-61
2022/10/18 06:07:00;;;;;;;8.40;6.18;;;;;;;22.58;41.56;96358.47;5009019;28;20041;-59
2022/10/18 06:09:26;;;;;;;7.18;6.00;;;;;;;22.61;41.49;96360.25;5004054;28;20096;-58
2022/10/18 06:11:51;;;;;;;10.55;5.90;;;;;;;22.69;41.44;96358.63;5006969;28;20040;-57
2022/10/18 06:14:17;;;;;;;7.88;5.78;;;;;;;22.59;41.55;96362.69;5000125;28;20053;-59
2022/10/18 06:16:42;;;;;;;9.52;5.93;;;;;;;22.71;41.25;96356.22;5008863;28;20037;-57
2022/10/18 06:19:08;;;;;;;7.38;5.80;;;;;;;22.78;41.30;96350.34;5007432;28;20041;-61
2022/10/18 06:21:33;;;;;;;6.78;5.70;;;;;;;22.71;41.06;96380.72;5012766;28;20045;-58
2022/10/18 06:23:59;;;;;;;9.23;6.30;;;;;;;22.86;41.31;96356.94;5024541;28;20056;-62
2022/10/18 06:26:25;;;;;;;7.85;6.07;;;;;;;22.78;41.29;96350.34;5004280;28;20030;-63
2022/10/18 06:28:51;;;;;;;9.02;6.15;;;;;;;22.68;41.33;96352.44;5025357;28;20072;-63
2022/10/18 06:31:16;;;;;;;7.85;6.25;;;;;;;22.67;41.11;96340.03;5016159;28;20045;-61
2022/10/18 06:33:42;;;;;;;8.30;6.28;;;;;;;22.63;41.35;96360.53;5015753;28;20041;-62
2022/10/18 06:36:14;;;;;;;7.93;6.05;;;;;;;22.70;41.49;96350.00;5027298;28;20392;-61
2022/10/18 06:38:40;;;;;;;9.50;6.72;;;;;;;22.54;41.63;96352.47;5027393;28;20029;-66
2022/10/18 06:41:06;;;;;;;12.20;6.88;;;;;;;22.50;41.96;96335.59;5028837;28;20032;-62
2022/10/18 06:43:31;;;;;;;8.73;6.75;;;;;;;22.57;41.67;96346.06;5024075;28;20033;-60
2022/10/18 06:45:56;;;;;;;8.15;5.82;;;;;;;22.63;41.45;96355.06;5014474;28;20166;-63
2022/10/18 06:48:22;;;;;;;9.50;6.60;;;;;;;22.49;41.62;96344.97;5010622;28;20048;-62
2022/10/18 06:50:55;;;;;;;9.82;6.93;;;;;;;22.36;42.06;96358.13;5027798;28;20099;-63
2022/10/18 06:53:21;;;;;;;8.75;6.43;;;;;;;22.32;41.87;96346.69;5028777;28;20173;-61
2022/10/18 06:55:47;;;;;;;10.70;7.15;;;;;;;22.16;42.25;96349.09;5027645;28;20046;-61
2022/10/18 06:58:12;;;;;;;9.38;6.53;;;;;;;22.17;42.13;96351.34;5028140;28;20029;-60
2022/10/18 07:00:38;;;;;;;10.60;7.35;;;;;;;22.11;42.17;96347.03;5028354;28;20034;-62
2022/10/18 07:03:03;;;;;;;9.23;6.65;;;;;;;22.00;42.78;96352.25;5030423;28;20178;-61
2022/10/18 07:05:30;;;;;;;10.10;6.95;;;;;;;21.95;42.60;96350.94;5039881;28;20562;-60
2022/10/18 07:07:55;;;;;;;10.07;6.70;;;;;;;21.91;42.59;96348.88;5027311;28;20666;-59
2022/10/18 07:10:21;;;;;;;9.57;7.05;;;;;;;21.93;42.53;96350.66;5027911;28;20065;-56
2022/10/18 07:12:46;;;;;;;10.73;7.80;;;;;;;21.89;42.51;96352.06;5023245;28;20489;-57
2022/10/18 07:15:12;;;;;;;10.10;7.72;;;;;;;21.84;42.71;96358.16;5025573;28;20030;-57
2022/10/18 07:17:37;;;;;;;13.48;7.93;;;;;;;21.80;42.73;96354.13;5027869;28;20028;-58
2022/10/18 07:20:03;;;;;;;10.77;6.75;;;;;;;21.80;42.63;96354.13;5027416;28;20037;-58
2022/10/18 07:22:29;;;;;;;10.32;7.70;;;;;;;21.77;42.66;96344.16;5027409;28;20048;-62
2022/10/18 07:24:54;;;;;;;10.18;7.45;;;;;;;21.72;42.75;96352.94;5027199;28;20516;-61
2022/10/18 07:27:20;;;;;;;11.20;7.90;;;;;;;21.71;42.76;96346.03;5026724;28;20155;-67
2022/10/18 07:29:45;;;;;;;10.30;8.05;;;;;;;21.69;42.81;96338.34;5009800;28;20033;-65
2022/10/18 07:32:11;;;;;;;11.88;8.38;;;;;;;21.68;42.73;96342.28;5027713;28;20498;-65
2022/10/18 07:34:36;;;;;;;10.52;8.10;;;;;;;21.70;42.71;96339.09;5026572;28;20037;-66
2022/10/18 07:37:01;;;;;;;11.57;8.25;;;;;;;21.67;42.68;96340.00;5026519;28;20053;-65
2022/10/18 07:39:27;;;;;;;11.18;8.35;;;;;;;21.65;42.48;96334.31;5026989;28;20052;-58
2022/10/18 07:41:53;;;;;;;10.23;7.80;;;;;;;21.65;42.78;96331.59;5027154;28;20111;-61
2022/10/18 07:44:18;;;;;;;11.68;7.72;;;;;;;21.65;42.61;96334.31;5026687;28;20026;-63
2022/10/18 07:46:43;;;;;;;10.80;8.60;;;;;;;21.63;42.75;96334.03;5027185;28;20034;-62
2022/10/18 07:49:09;;;;;;;11.85;8.02;;;;;;;21.63;42.67;96329.34;5027548;28;20037;-60
2022/10/18 07:51:35;;;;;;;11.75;9.05;;;;;;;21.65;42.63;96326.16;5025950;28;20190;-62
2022/10/18 07:54:01;;;;;;;12.52;8.70;;;;;;;21.63;42.71;96323.91;5027284;28;20041;-63
2022/10/18 07:56:26;;;;;;;12.25;8.57;;;;;;;21.66;42.59;96319.50;5026686;28;20052;-63
2022/10/18 07:58:52;;;;;;;11.98;8.90;;;;;;;21.60;42.57;96313.22;5025384;28;20029;-63
2022/10/18 08:01:19;;;;;;;11.18;8.50;;;;;;;21.63;42.63;96312.28;4988874;28;20034;-60
2022/10/18 08:03:44;;;;;;;13.05;8.85;;;;;;;21.03;42.50;96230.31;5025664;28;20159;-60
2022/10/18 08:06:11;;;;;;;12.13;9.07;;;;;;;21.63;42.62;96315.00;5031783;28;20551;-60
2022/10/18 08:08:37;;;;;;;12.95;9.23;;;;;;;21.63;42.53;96302.16;5026583;28;20029;-59
2022/10/18 08:11:09;;;;;;;12.30;8.93;;;;;;;20.47;42.46;96135.88;5026099;28;20037;-67
2022/10/18 08:13:34;;;;;;;10.80;8.63;;;;;;;21.65;42.49;96304.41;5024672;28;20126;-61
2022/10/18 08:16:26;;;;;;;11.63;8.90;;;;;;;21.64;42.51;96308.31;5006653;28;20499;-67
2022/10/18 08:18:52;;;;;;;11.45;8.88;;;;;;;21.59;42.44;96279.09;5021798;28;20042;-66
2022/10/18 08:21:19;;;;;;;10.93;8.80;;;;;;;21.05;42.33;96198.00;5025442;28;21099;-67
2022/10/18 08:23:44;;;;;;;12.75;9.07;;;;;;;21.06;42.45;96199.53;5025868;28;20108;-64
2022/10/18 08:26:12;;;;;;;11.88;9.15;;;;;;;21.20;42.41;96219.78;5025956;28;20108;-65
2022/10/18 08:28:37;;;;;;;11.60;8.93;;;;;;;21.53;42.06;96259.94;5025348;28;20034;-63
2022/10/18 08:31:13;;;;;;;13.73;9.07;;;;;;;21.69;42.35;96283.22;5025049;28;20042;-69
2022/10/18 08:33:39;;;;;;;11.63;8.50;;;;;;;21.70;42.31;96273.84;5025519;28;20037;-66
2022/10/18 08:36:05;;;;;;;12.32;8.85;;;;;;;21.71;42.07;96270.66;5024947;28;20408;-65
2022/10/18 08:38:34;;;;;;;11.10;9.27;;;;;;;21.73;42.28;96273.66;5025324;28;20034;-60
2022/10/18 08:41:40;;;;;;;13.60;8.95;;;;;;;21.58;42.00;96239.53;5025099;28;20057;-63
2022/10/18 08:44:21;;;;;;;11.90;8.52;;;;;;;21.75;42.10;96260.34;4970258;28;20090;-59
2022/10/18 08:46:48;;;;;;;13.48;9.02;;;;;;;21.76;41.93;96244.78;5015018;28;20034;-59
2022/10/18 08:49:21;;;;;;;10.15;8.27;;;;;;;21.77;42.10;96246.28;4978083;28;20052;-61
2022/10/18 08:51:46;;;;;;;11.05;8.35;;;;;;;21.79;42.03;96244.59;4997044;28;20068;-61
2022/10/18 08:54:33;;;;;;;11.50;8.70;;;;;;;21.82;42.04;96242.91;4985658;28;20100;-59
2022/10/18 08:57:00;;;;;;;11.18;8.50;;;;;;;21.83;42.01;96238.97;4985139;28;20132;-60
2022/10/18 08:59:30;;;;;;;11.25;8.60;;;;;;;21.72;42.07;96217.03;5007427;28;20026;-63
2022/10/18 09:02:07;;;;;;;11.55;8.90;;;;;;;21.84;41.83;96235.03;4962342;28;20042;-60
2022/10/18 09:04:47;;;;;;;9.93;7.93;;;;;;;21.76;41.90;96233.91;5003530;28;20517;-60
2022/10/18 09:07:25;;;;;;;14.20;8.65;;;;;;;21.87;41.89;96234.09;4980399;28;20027;-67
2022/10/18 09:10:15;;;;;;;11.68;8.52;;;;;;;21.91;41.93;96231.94;5001045;28;20050;-65
2022/10/18 09:12:47;;;;;;;10.38;8.32;;;;;;;21.92;41.75;96230.72;5004485;28;20420;-67
2022/10/18 09:15:16;;;;;;;10.77;8.38;;;;;;;21.89;41.86;96226.97;5004905;28;20134;-62
2022/10/18 09:17:55;;;;;;;10.35;8.20;;;;;;;21.93;41.77;96222.09;5004906;28;20018;-60
2022/10/18 09:20:27;;;;;;;12.07;9.17;;;;;;;21.98;41.74;96224.88;5005128;28;20052;-63
2022/10/18 09:23:02;;;;;;;13.48;8.95;;;;;;;22.05;41.51;96224.50;5006026;28;20045;-61
2022/10/18 09:25:33;;;;;;;11.00;8.10;;;;;;;22.12;41.55;96226.09;5005870;28;20056;-63
2022/10/18 09:28:18;;;;;;;11.80;8.90;;;;;;;22.11;41.57;96227.31;5006001;28;20053;-63
2022/10/18 09:30:53;;;;;;;9.73;7.82;;;;;;;22.17;41.29;96217.28;5010376;28;20049;-62
2022/10/18 09:33:27;;;;;;;12.23;8.82;;;;;;;22.07;41.21;96192.13;5015058;28;20049;-64
2022/10/18 09:36:06;;;;;;;10.85;8.13;;;;;;;22.24;41.05;96220.41;4997787;28;20114;-63
2022/10/18 09:39:02;;;;;;;10.80;8.57;;;;;;;22.30;41.02;96202.19;5008816;28;20180;-64
2022/10/18 09:41:38;;;;;;;12.18;8.07;;;;;;;22.39;40.76;96204.78;4991982;28;20073;-62
2022/10/18 09:44:19;;;;;;;10.18;8.27;;;;;;;22.32;40.95;96205.16;5025091;28;20068;-59
2022/10/18 09:46:50;;;;;;;12.27;8.95;;;;;;;22.02;40.92;96143.13;5030842;28;20124;-62
2022/10/18 09:49:18;;;;;;;12.70;8.60;;;;;;;22.41;40.99;96205.03;4994337;28;20033;-61
2022/10/18 09:51:44;;;;;;;9.90;7.60;;;;;;;22.33;40.89;96201.22;5025874;28;20037;-61
2022/10/18 09:54:29;;;;;;;10.68;7.95;;;;;;;22.35;41.15;96201.50;4978112;28;20504;-57
2022/10/18 09:57:14;;;;;;;11.20;8.40;;;;;;;22.20;40.88;96187.16;5015005;28;20041;-60
2022/10/18 09:59:49;;;;;;;10.07;7.88;;;;;;;22.40;41.04;96189.19;5008446;28;20111;-57
2022/10/18 10:02:16;;;;;;;10.82;8.68;;;;;;;22.36;41.04;96189.41;5010190;28;20038;-61
2022/10/18 10:04:42;;;;;;;10.32;8.13;;;;;;;22.38;40.74;96173.34;5039364;28;20041;-59
2022/10/18 10:07:10;;;;;;;9.85;7.82;;;;;;;22.42;40.88;96171.16;5006971;28;20068;-60
2022/10/18 10:09:54;;;;;;;12.07;8.02;;;;;;;22.39;40.90;96161.22;5025323;28;20530;-62
2022/10/18 10:13:01;;;;;;;11.02;7.57;;;;;;;22.49;40.82;96159.88;5028727;28;20128;-60
2022/10/18 10:15:26;;;;;;;11.18;8.23;;;;;;;22.50;40.99;96155.94;4989790;28;20096;-59
2022/10/18 10:18:06;;;;;;;10.93;8.00;;;;;;;22.52;40.79;96145.31;5029002;28;20021;-62
2022/10/18 10:20:49;;;;;;;11.80;8.13;;;;;;;22.58;40.43;96141.41;5027000;28;20041;-64
2022/10/18 10:23:24;;;;;;;10.05;8.00;;;;;;;22.62;40.36;96141.22;4999940;28;20044;-62
2022/10/18 10:26:24;;;;;;;10.32;7.80;;;;;;;22.64;40.49;96127.88;5028947;28;20072;-63
2022/10/18 10:28:49;;;;;;;10.50;7.17;;;;;;;22.68;40.57;96131.16;5029000;28;20125;-63
2022/10/18 10:31:17;;;;;;;9.93;7.50;;;;;;;22.72;40.34;96112.63;5029173;28;20272;-62
2022/10/18 10:33:42;;;;;;;11.70;8.13;;;;;;;22.72;40.21;96107.94;5029158;28;20400;-63
2022/10/18 10:36:18;;;;;;;10.95;7.72;;;;;;;22.66;40.34;96106.34;4994670;28;20044;-62
2022/10/18 10:38:44;;;;;;;11.05;7.72;;;;;;;22.59;40.39;96085.00;5029755;28;20033;-61
2022/10/18 10:41:22;;;;;;;9.65;7.90;;;;;;;22.69;40.45;96094.50;4973911;28;20053;-68
2022/10/18 10:43:47;;;;;;;9.95;7.97;;;;;;;22.64;40.30;96089.75;5023312;28;20034;-68
2022/10/18 10:46:17;;;;;;;9.93;7.82;;;;;;;22.74;40.36;96085.69;5010128;28;20056;-67
2022/10/18 10:48:51;;;;;;;10.07;7.03;;;;;;;22.74;40.46;96077.50;5010439;28;20045;-68
2022/10/18 10:51:26;;;;;;;9.73;7.43;;;;;;;22.68;40.37;96052.19;5009718;28;20049;-62
2022/10/18 10:54:07;;;;;;;10.43;7.65;;;;;;;22.77;40.38;96065.66;5011896;28;20142;-66
2022/10/18 10:56:34;;;;;;;10.77;7.75;;;;;;;22.78;40.11;96061.69;5028135;28;20114;-68
2022/10/18 10:59:13;;;;;;;11.02;7.90;;;;;;;22.41;39.92;96004.38;5016878;28;20131;-64
2022/10/18 11:01:38;;;;;;;9.63;7.70;;;;;;;21.39;39.85;95843.44;4985575;28;20038;-67
2022/10/18 11:04:26;;;;;;;9.35;7.45;;;;;;;22.84;40.05;96048.88;5033675;28;20028;-68
2022/10/18 11:07:18;;;;;;;9.77;7.30;;;;;;;22.51;40.17;95991.38;5028489;28;20036;-68
2022/10/18 11:09:49;;;;;;;9.63;7.25;;;;;;;22.84;40.01;96043.44;5021200;28;20045;-67
2022/10/18 11:12:20;;;;;;;8.50;7.15;;;;;;;22.90;40.02;96059.34;5009745;28;20578;-65
2022/10/18 11:14:48;;;;;;;9.13;6.95;;;;;;;22.87;39.72;96042.47;5005353;28;20056;-64
2022/10/18 11:17:31;;;;;;;10.05;7.03;;;;;;;22.77;40.03;96017.38;5029014;28;20049;-64
2022/10/18 11:20:06;;;;;;;7.93;6.45;;;;;;;22.97;40.20;96037.19;4994606;28;20113;-70
2022/10/18 11:22:43;;;;;;;9.43;7.00;;;;;;;22.68;40.01;95981.41;5029238;28;20457;-69
2022/10/18 11:25:12;;;;;;;8.27;6.78;;;;;;;22.82;39.93;95992.16;5001945;28;20030;-58
2022/10/18 11:28:08;;;;;;;8.65;6.88;;;;;;;22.97;40.09;96020.84;5011150;28;20043;-66
2022/10/18 11:30:42;;;;;;;8.57;6.78;;;;;;;22.97;39.95;96009.16;4991971;28;20184;-63
2022/10/18 11:33:35;;;;;;;8.23;6.38;;;;;;;22.97;39.88;95996.31;5027699;28;20484;-63
2022/10/18 11:36:08;;;;;;;10.40;6.80;;;;;;;23.03;39.75;95997.09;5028137;28;20128;-60
2022/10/18 11:39:02;;;;;;;7.32;6.10;;;;;;;23.04;39.70;95987.69;5026349;28;20025;-59
2022/10/18 11:41:30;;;;;;;9.13;6.60;;;;;;;23.10;39.78;95985.00;5010128;28;20038;-56
2022/10/18 11:44:31;;;;;;;8.93;6.13;;;;;;;23.05;39.63;95972.84;5027535;28;20044;-59